Time;durP1;ratioP1;P1;durP2;ratioP2;P2;SDS_P1;SDS_P2;PMS_P1;PMS_P2;Temp;Humidity;BMP_temperature;BMP_pressure;BME280_temperature;BME280_humidity;BME280_pressure;Samples;Min_cycle;Max_cycle;Signal;HPM_P1;HPM_P2
2022/07/10 00:00:31;;;;;;;0.00;0.00;;;14.10;79.40;;;;;;4982847;28;20045;-69
2022/07/10 00:02:58;;;;;;;0.00;0.00;;;14.10;79.30;;;;;;4988752;28;20149;-69
2022/07/10 00:05:24;;;;;;;0.00;0.00;;;14.10;79.40;;;;;;4986772;28;20096;-69
2022/07/10 00:07:50;;;;;;;0.00;0.00;;;14.00;79.60;;;;;;4976626;28;20073;-69
2022/07/10 00:10:20;;;;;;;0.00;0.00;;;14.00;79.70;;;;;;4992305;28;20089;-69
2022/07/10 00:12:46;;;;;;;0.00;0.00;;;14.00;79.40;;;;;;4994839;28;20046;-69
2022/07/10 00:15:13;;;;;;;0.00;0.00;;;13.90;79.30;;;;;;4991255;28;20053;-69
2022/07/10 00:17:40;;;;;;;0.00;0.00;;;13.90;79.30;;;;;;4994716;28;20125;-69
2022/07/10 00:20:06;;;;;;;0.00;0.00;;;13.90;79.10;;;;;;4996006;28;20887;-69
2022/07/10 00:22:40;;;;;;;0.00;0.00;;;13.90;78.90;;;;;;4979264;28;20046;-69
2022/07/10 00:25:09;;;;;;;0.00;0.00;;;13.90;79.00;;;;;;4992038;28;20116;-69
2022/07/10 00:27:35;;;;;;;4.50;0.80;;;13.90;79.00;;;;;;4995769;28;20077;-69
2022/07/10 00:30:01;;;;;;;0.00;0.00;;;13.90;79.00;;;;;;4995030;28;20066;-69
2022/07/10 00:32:27;;;;;;;0.15;0.15;;;13.80;79.00;;;;;;4995600;28;20053;-69
2022/07/10 00:34:52;;;;;;;0.00;0.00;;;13.80;79.00;;;;;;4995807;28;20827;-68
2022/07/10 00:37:20;;;;;;;0.00;0.00;;;13.80;79.00;;;;;;4995807;28;20109;-69
2022/07/10 00:39:46;;;;;;;0.00;0.00;;;13.80;78.90;;;;;;4995491;28;20054;-70
2022/07/10 00:42:14;;;;;;;0.00;0.00;;;13.80;78.80;;;;;;4995579;28;20403;-69
2022/07/10 00:44:41;;;;;;;0.00;0.00;;;13.80;78.50;;;;;;4992566;28;20034;-69
2022/07/10 00:47:08;;;;;;;0.00;0.00;;;13.80;78.40;;;;;;4991165;28;20046;-69
2022/07/10 00:49:35;;;;;;;0.00;0.00;;;13.80;78.30;;;;;;4990865;28;20037;-69
2022/07/10 00:52:03;;;;;;;0.05;0.05;;;13.70;78.10;;;;;;4977346;28;20519;-69
2022/07/10 00:54:30;;;;;;;0.00;0.00;;;13.80;78.00;;;;;;4985715;28;20824;-69
2022/07/10 00:56:56;;;;;;;0.32;0.32;;;13.80;77.80;;;;;;4981179;28;20109;-69
2022/07/10 00:59:23;;;;;;;0.00;0.00;;;13.80;77.60;;;;;;4975445;28;20050;-69
2022/07/10 01:01:50;;;;;;;0.00;0.00;;;13.90;77.70;;;;;;4991972;28;20094;-69
2022/07/10 01:04:17;;;;;;;0.05;0.05;;;13.90;77.80;;;;;;4991607;28;20038;-69
2022/07/10 01:06:42;;;;;;;0.00;0.00;;;14.00;77.90;;;;;;4990304;28;20046;-69
2022/07/10 01:09:08;;;;;;;0.00;0.00;;;14.00;77.80;;;;;;4988500;28;20034;-69
2022/07/10 01:11:34;;;;;;;0.00;0.00;;;14.10;77.80;;;;;;4984391;28;20049;-70
2022/07/10 01:14:01;;;;;;;0.00;0.00;;;14.10;77.90;;;;;;4984929;28;20046;-69
2022/07/10 01:16:27;;;;;;;0.00;0.00;;;14.10;77.80;;;;;;4978387;28;20162;-69
2022/07/10 01:18:52;;;;;;;0.00;0.00;;;14.10;78.10;;;;;;4972884;28;20133;-69
2022/07/10 01:21:29;;;;;;;0.00;0.00;;;14.20;78.10;;;;;;4973986;28;20043;-69
2022/07/10 01:23:55;;;;;;;0.00;0.00;;;14.20;78.10;;;;;;4977492;28;20407;-69
2022/07/10 01:26:23;;;;;;;0.00;0.00;;;14.20;77.90;;;;;;4990955;28;20131;-69
2022/07/10 01:28:50;;;;;;;0.00;0.00;;;14.30;77.70;;;;;;4990357;28;20061;-69
2022/07/10 01:31:18;;;;;;;0.00;0.00;;;14.30;77.40;;;;;;4989463;28;20046;-69
2022/07/10 01:33:44;;;;;;;0.10;0.10;;;14.30;77.30;;;;;;4975107;28;20105;-69
2022/07/10 01:36:10;;;;;;;0.00;0.00;;;14.30;77.40;;;;;;4985817;28;20094;-69
2022/07/10 01:38:35;;;;;;;0.30;0.30;;;14.30;77.70;;;;;;4991343;28;20042;-69
2022/07/10 01:41:01;;;;;;;0.00;0.00;;;14.30;77.70;;;;;;4990984;28;20042;-69
2022/07/10 01:43:27;;;;;;;0.10;0.10;;;14.30;77.60;;;;;;4973716;28;20045;-69
2022/07/10 01:45:52;;;;;;;0.00;0.00;;;14.20;77.50;;;;;;4988737;28;20046;-69
2022/07/10 01:48:18;;;;;;;0.00;0.00;;;14.20;77.50;;;;;;4974263;28;20051;-69
2022/07/10 01:50:43;;;;;;;0.00;0.00;;;14.20;77.30;;;;;;4981907;28;20050;-69
2022/07/10 01:53:10;;;;;;;0.00;0.00;;;14.20;77.00;;;;;;4990700;28;20038;-69
2022/07/10 01:55:36;;;;;;;0.00;0.00;;;14.10;76.70;;;;;;4990693;28;20093;-69
2022/07/10 01:58:02;;;;;;;0.10;0.10;;;14.10;76.40;;;;;;4976802;28;20892;-69
2022/07/10 02:00:27;;;;;;;0.00;0.00;;;14.10;76.40;;;;;;4973394;28;20038;-69
2022/07/10 02:05:37;;;;;;;0.00;0.00;;;14.10;76.10;;;;;;4988857;28;20066;-69
2022/07/10 02:08:05;;;;;;;0.20;0.20;;;14.10;76.20;;;;;;4990551;28;20427;-70
2022/07/10 02:10:32;;;;;;;0.00;0.00;;;14.10;76.00;;;;;;4988991;28;20392;-69
2022/07/10 02:12:58;;;;;;;0.00;0.00;;;14.10;75.90;;;;;;4982122;28;20050;-69
2022/07/10 02:15:23;;;;;;;0.00;0.00;;;14.10;75.80;;;;;;4990343;28;20101;-69
2022/07/10 02:17:49;;;;;;;0.00;0.00;;;14.10;75.90;;;;;;4983052;28;20476;-69
2022/07/10 02:20:15;;;;;;;0.08;0.08;;;14.10;76.10;;;;;;4970276;28;20057;-69
2022/07/10 02:22:41;;;;;;;0.00;0.00;;;14.10;76.40;;;;;;4980207;28;20050;-69
2022/07/10 02:25:07;;;;;;;0.00;0.00;;;14.20;76.50;;;;;;4982334;28;20097;-69
2022/07/10 02:27:32;;;;;;;0.00;0.00;;;14.20;77.10;;;;;;4976960;28;20041;-69
2022/07/10 02:29:58;;;;;;;0.00;0.00;;;14.20;77.20;;;;;;4989593;28;20038;-69
2022/07/10 02:32:24;;;;;;;0.00;0.00;;;14.30;77.60;;;;;;4984921;28;20448;-70
2022/07/10 02:34:49;;;;;;;0.52;0.52;;;14.30;77.70;;;;;;4979501;28;20038;-69
2022/07/10 02:37:15;;;;;;;0.00;0.00;;;14.40;77.90;;;;;;4987916;28;20038;-69
2022/07/10 02:39:40;;;;;;;0.00;0.00;;;14.40;78.00;;;;;;4990824;28;20828;-70
2022/07/10 02:42:06;;;;;;;0.00;0.00;;;14.50;78.30;;;;;;4988853;28;20105;-69
2022/07/10 02:44:32;;;;;;;0.00;0.00;;;14.50;78.50;;;;;;4989618;28;20134;-69
2022/07/10 02:46:57;;;;;;;0.00;0.00;;;14.60;78.40;;;;;;4990197;28;20046;-69
2022/07/10 02:49:23;;;;;;;0.50;0.50;;;14.60;78.80;;;;;;4970841;28;20054;-69
2022/07/10 02:51:50;;;;;;;0.00;0.00;;;14.60;79.00;;;;;;4971018;28;20077;-69
2022/07/10 02:54:16;;;;;;;0.00;0.00;;;14.60;78.70;;;;;;4987236;28;20056;-69
2022/07/10 02:56:42;;;;;;;0.00;0.00;;;14.60;79.10;;;;;;4989753;28;20073;-69
2022/07/10 02:59:07;;;;;;;0.00;0.00;;;14.60;79.80;;;;;;4977248;28;20157;-70
2022/07/10 03:01:33;;;;;;;0.00;0.00;;;14.60;79.60;;;;;;4988882;28;20070;-69
2022/07/10 03:03:58;;;;;;;0.00;0.00;;;14.60;79.70;;;;;;4989921;28;20137;-69
2022/07/10 03:06:24;;;;;;;0.00;0.00;;;14.60;80.00;;;;;;4989542;28;20069;-69
2022/07/10 03:08:50;;;;;;;0.00;0.00;;;14.60;79.90;;;;;;4984344;28;20145;-69
2022/07/10 03:11:15;;;;;;;0.00;0.00;;;14.60;79.90;;;;;;4989962;28;20671;-69
2022/07/10 03:13:41;;;;;;;0.00;0.00;;;14.60;80.20;;;;;;4978599;28;20038;-69
2022/07/10 03:16:07;;;;;;;0.00;0.00;;;14.70;79.90;;;;;;4988635;28;20444;-69
2022/07/10 03:18:32;;;;;;;0.10;0.10;;;14.70;80.30;;;;;;4985920;28;20476;-69
2022/07/10 03:20:58;;;;;;;0.00;0.00;;;14.70;80.50;;;;;;4988296;28;20073;-69
2022/07/10 03:23:23;;;;;;;0.00;0.00;;;14.60;80.50;;;;;;4972683;28;20047;-69
2022/07/10 03:25:49;;;;;;;0.00;0.00;;;14.60;81.40;;;;;;4989327;28;20039;-69
2022/07/10 03:28:15;;;;;;;0.00;0.00;;;14.60;82.20;;;;;;4983343;28;20381;-69
2022/07/10 03:30:40;;;;;;;0.00;0.00;;;14.50;82.80;;;;;;4989672;28;20038;-70
2022/07/10 03:33:06;;;;;;;0.00;0.00;;;14.50;83.30;;;;;;4987536;28;20045;-69
2022/07/10 03:35:31;;;;;;;0.00;0.00;;;14.50;84.00;;;;;;4989012;28;20039;-69
2022/07/10 03:37:57;;;;;;;0.00;0.00;;;14.50;84.30;;;;;;4988506;28;20506;-69
2022/07/10 03:40:23;;;;;;;0.00;0.00;;;14.40;84.80;;;;;;4969534;28;20047;-69
2022/07/10 03:42:49;;;;;;;0.00;0.00;;;14.40;85.10;;;;;;4968567;28;20061;-69
2022/07/10 03:45:15;;;;;;;0.00;0.00;;;14.40;85.00;;;;;;4987576;28;20043;-69
2022/07/10 03:47:40;;;;;;;0.10;0.10;;;14.40;84.90;;;;;;4970142;28;20387;-69
2022/07/10 03:50:06;;;;;;;0.00;0.00;;;14.40;85.20;;;;;;4970689;28;20073;-69
2022/07/10 03:52:32;;;;;;;0.00;0.00;;;14.50;85.30;;;;;;4977755;28;20380;-70
2022/07/10 03:54:58;;;;;;;0.00;0.00;;;14.50;85.20;;;;;;4989138;28;20096;-70
2022/07/10 04:00:08;;;;;;;0.00;0.00;;;14.50;85.40;;;;;;4987989;28;20745;-69
2022/07/10 04:02:34;;;;;;;0.00;0.00;;;14.50;85.40;;;;;;4989369;28;20784;-70
2022/07/10 04:04:59;;;;;;;0.00;0.00;;;14.50;85.50;;;;;;4988781;28;20050;-69
2022/07/10 04:07:25;;;;;;;0.08;0.08;;;14.50;85.20;;;;;;4976987;28;20049;-69
2022/07/10 04:09:50;;;;;;;0.00;0.00;;;14.50;85.60;;;;;;4981049;28;20088;-69
2022/07/10 04:12:16;;;;;;;0.00;0.00;;;14.50;85.90;;;;;;4954708;28;20055;-69
2022/07/10 04:14:41;;;;;;;0.00;0.00;;;14.50;86.10;;;;;;4987675;28;20064;-69
2022/07/10 04:17:08;;;;;;;0.00;0.00;;;14.50;86.30;;;;;;4989156;28;20128;-70
2022/07/10 04:19:34;;;;;;;0.00;0.00;;;14.40;86.30;;;;;;4989214;28;20046;-69
2022/07/10 04:22:00;;;;;;;0.10;0.10;;;14.40;86.30;;;;;;4993198;28;20105;-69
2022/07/10 04:24:25;;;;;;;0.00;0.00;;;14.50;86.10;;;;;;4987372;28;20534;-69
2022/07/10 04:26:51;;;;;;;0.00;0.00;;;14.50;85.90;;;;;;4992850;28;20051;-71
2022/07/10 04:29:16;;;;;;;0.00;0.00;;;14.50;85.90;;;;;;4985228;28;20043;-69
2022/07/10 04:31:42;;;;;;;0.00;0.00;;;14.50;85.80;;;;;;4973650;28;20101;-68
2022/07/10 04:34:08;;;;;;;0.00;0.00;;;14.50;86.00;;;;;;4984836;28;20459;-67
2022/07/10 04:36:33;;;;;;;0.88;0.88;;;14.60;86.20;;;;;;4989911;28;20058;-69
2022/07/10 04:38:59;;;;;;;0.00;0.00;;;14.60;86.00;;;;;;4988407;28;20860;-69
2022/07/10 04:41:25;;;;;;;0.00;0.00;;;14.60;86.50;;;;;;4988463;28;20061;-68
2022/07/10 04:43:50;;;;;;;0.80;0.73;;;14.60;86.10;;;;;;4981066;28;20058;-66
2022/07/10 04:46:16;;;;;;;0.00;0.00;;;14.60;86.60;;;;;;4985308;28;20046;-67
2022/07/10 04:48:42;;;;;;;0.00;0.00;;;14.60;86.80;;;;;;4976698;28;20047;-67
2022/07/10 04:51:08;;;;;;;0.00;0.00;;;14.60;87.00;;;;;;4987133;28;20062;-67
2022/07/10 04:53:34;;;;;;;0.00;0.00;;;14.60;86.90;;;;;;4989260;28;20050;-67
2022/07/10 04:55:59;;;;;;;0.00;0.00;;;14.70;86.80;;;;;;4986473;28;20205;-67
2022/07/10 04:58:25;;;;;;;0.00;0.00;;;14.70;86.50;;;;;;4989520;28;20042;-67
2022/07/10 05:00:51;;;;;;;0.00;0.00;;;14.70;86.90;;;;;;4986881;28;20058;-68
2022/07/10 05:03:16;;;;;;;0.00;0.00;;;14.70;86.90;;;;;;4992079;28;20038;-68
2022/07/10 05:05:43;;;;;;;0.00;0.00;;;14.80;87.10;;;;;;4980959;28;20373;-68
2022/07/10 05:08:09;;;;;;;0.00;0.00;;;14.80;86.90;;;;;;4988346;28;20051;-69
2022/07/10 05:10:34;;;;;;;0.00;0.00;;;14.80;87.00;;;;;;4988212;28;20519;-68
2022/07/10 05:13:00;;;;;;;0.00;0.00;;;14.90;86.80;;;;;;4991028;28;20088;-68
2022/07/10 05:15:26;;;;;;;0.00;0.00;;;14.90;86.40;;;;;;4985469;28;20396;-68
2022/07/10 05:17:51;;;;;;;0.05;0.05;;;14.90;86.00;;;;;;4991599;28;20380;-68
2022/07/10 05:20:17;;;;;;;0.00;0.00;;;15.00;85.80;;;;;;4988230;28;20038;-68
2022/07/10 05:22:42;;;;;;;0.00;0.00;;;15.00;85.70;;;;;;4989590;28;20074;-67
2022/07/10 05:25:08;;;;;;;0.00;0.00;;;15.10;85.30;;;;;;4976349;28;20038;-68
2022/07/10 05:27:34;;;;;;;0.03;0.03;;;15.10;85.10;;;;;;4986996;28;20514;-68
2022/07/10 05:29:59;;;;;;;0.00;0.00;;;15.10;85.00;;;;;;4989494;28;20035;-68
2022/07/10 05:32:25;;;;;;;0.10;0.10;;;15.20;85.10;;;;;;4990970;28;21184;-68
2022/07/10 05:34:51;;;;;;;0.00;0.00;;;15.20;85.20;;;;;;4990148;28;20050;-68
2022/07/10 05:37:17;;;;;;;0.00;0.00;;;15.20;85.50;;;;;;4990508;28;20069;-68
2022/07/10 05:39:43;;;;;;;0.00;0.00;;;15.20;85.40;;;;;;4973276;28;20050;-66
2022/07/10 05:42:09;;;;;;;0.00;0.00;;;15.20;85.40;;;;;;4973108;28;20101;-69
2022/07/10 05:44:34;;;;;;;0.05;0.05;;;15.30;85.10;;;;;;4990885;28;20046;-68
2022/07/10 05:47:00;;;;;;;0.00;0.00;;;15.30;85.00;;;;;;4970469;28;20054;-69
2022/07/10 05:49:25;;;;;;;0.00;0.00;;;15.30;84.70;;;;;;4971842;28;20042;-68
2022/07/10 05:51:51;;;;;;;0.00;0.00;;;15.30;84.60;;;;;;4986999;28;20408;-69
2022/07/10 05:54:17;;;;;;;0.00;0.00;;;15.20;84.60;;;;;;4981896;28;20043;-68
2022/07/10 05:56:42;;;;;;;0.00;0.00;;;15.20;84.50;;;;;;4986150;28;20076;-69
2022/07/10 05:59:08;;;;;;;0.00;0.00;;;15.20;84.50;;;;;;4989951;28;20042;-69
2022/07/10 06:01:33;;;;;;;0.93;0.85;;;15.30;84.70;;;;;;4981274;28;20062;-69
2022/07/10 06:03:59;;;;;;;0.00;0.00;;;15.40;84.60;;;;;;4957583;28;20042;-69
2022/07/10 06:06:24;;;;;;;0.00;0.00;;;15.40;84.90;;;;;;4985218;28;20120;-69
2022/07/10 06:08:50;;;;;;;0.00;0.00;;;15.40;84.80;;;;;;4987525;28;20054;-68
2022/07/10 06:11:16;;;;;;;0.00;0.00;;;15.40;84.60;;;;;;4990524;28;20069;-69
2022/07/10 06:13:41;;;;;;;0.00;0.00;;;15.50;84.60;;;;;;4990135;28;20050;-68
2022/07/10 06:16:07;;;;;;;0.00;0.00;;;15.50;85.10;;;;;;4988575;28;20047;-68
2022/07/10 06:18:33;;;;;;;0.00;0.00;;;15.60;84.90;;;;;;4987788;28;20534;-68
2022/07/10 06:20:58;;;;;;;0.00;0.00;;;15.60;84.80;;;;;;4987470;28;20121;-68
2022/07/10 06:23:24;;;;;;;0.00;0.00;;;15.60;84.70;;;;;;4971159;28;20072;-69
2022/07/10 06:25:49;;;;;;;0.00;0.00;;;15.60;84.90;;;;;;4995681;28;20045;-68
2022/07/10 06:28:18;;;;;;;0.00;0.00;;;15.60;85.20;;;;;;4975852;28;20054;-68
2022/07/10 06:30:46;;;;;;;0.32;0.32;;;15.50;86.10;;;;;;4988645;28;20456;-68
2022/07/10 06:33:11;;;;;;;0.00;0.00;;;15.40;86.10;;;;;;4987048;28;20060;-68
2022/07/10 06:35:37;;;;;;;0.00;0.00;;;15.40;87.00;;;;;;4990382;28;20038;-68
2022/07/10 06:38:03;;;;;;;0.00;0.00;;;15.30;87.40;;;;;;4985393;28;20049;-68
2022/07/10 06:40:36;;;;;;;0.00;0.00;;;15.30;86.90;;;;;;4987006;28;20038;-67
2022/07/10 06:43:02;;;;;;;0.00;0.00;;;15.30;87.70;;;;;;4973019;28;20094;-68
2022/07/10 06:45:28;;;;;;;0.00;0.00;;;15.30;87.70;;;;;;4984129;28;20100;-68
2022/07/10 06:47:58;;;;;;;0.00;0.00;;;15.30;88.00;;;;;;4977758;28;20063;-69
2022/07/10 06:50:25;;;;;;;0.00;0.00;;;15.30;88.20;;;;;;4988349;28;20459;-68
2022/07/10 06:52:51;;;;;;;0.00;0.00;;;15.30;89.00;;;;;;4989896;28;20050;-72
2022/07/10 06:55:19;;;;;;;0.00;0.00;;;15.10;89.40;;;;;;4987678;28;20039;-72
2022/07/10 06:57:44;;;;;;;0.00;0.00;;;15.00;89.70;;;;;;4985414;28;20082;-72
2022/07/10 07:00:11;;;;;;;0.20;0.20;;;15.00;90.00;;;;;;4995246;28;20117;-72
2022/07/10 07:02:36;;;;;;;0.00;0.00;;;15.00;90.00;;;;;;4975517;28;20064;-71
2022/07/10 07:05:02;;;;;;;0.00;0.00;;;15.00;90.00;;;;;;4982091;28;20053;-72
2022/07/10 07:07:28;;;;;;;0.00;0.00;;;15.10;90.10;;;;;;4993366;28;20064;-73
2022/07/10 07:09:54;;;;;;;0.00;0.00;;;15.10;90.00;;;;;;4987086;28;20050;-72
2022/07/10 07:12:19;;;;;;;0.00;0.00;;;15.10;89.90;;;;;;4989493;28;20042;-73
2022/07/10 07:14:45;;;;;;;0.00;0.00;;;15.10;89.90;;;;;;4977372;28;20090;-69
2022/07/10 07:17:13;;;;;;;0.00;0.00;;;15.20;90.00;;;;;;4986071;28;20050;-70
2022/07/10 07:25:09;;;;;;;0.57;0.28;;;15.50;89.80;;;;;;4988221;28;20062;-68
2022/07/10 07:27:37;;;;;;;0.00;0.00;;;15.50;89.70;;;;;;4988358;28;20046;-67
2022/07/10 07:30:04;;;;;;;0.00;0.00;;;15.50;89.30;;;;;;4987623;28;20733;-67
2022/07/10 07:32:30;;;;;;;0.00;0.00;;;15.50;88.60;;;;;;4980081;28;20047;-68
2022/07/10 07:34:56;;;;;;;0.00;0.00;;;15.50;88.40;;;;;;4980669;28;20038;-67
2022/07/10 07:37:21;;;;;;;0.00;0.00;;;15.60;88.50;;;;;;4987448;28;20041;-67
2022/07/10 07:39:47;;;;;;;0.00;0.00;;;15.60;88.40;;;;;;4988363;28;20046;-67
2022/07/10 07:42:12;;;;;;;0.00;0.00;;;15.60;87.90;;;;;;4985120;28;20760;-67
2022/07/10 07:44:38;;;;;;;0.00;0.00;;;15.60;87.30;;;;;;4981090;28;20384;-67
2022/07/10 07:47:04;;;;;;;0.00;0.00;;;15.60;86.80;;;;;;4987465;28;20064;-68
2022/07/10 07:49:29;;;;;;;0.00;0.00;;;15.70;86.60;;;;;;4984474;28;20093;-68
2022/07/10 07:51:55;;;;;;;0.03;0.03;;;15.80;86.30;;;;;;4987640;28;20117;-67
2022/07/10 07:54:20;;;;;;;0.00;0.00;;;15.80;86.00;;;;;;4989898;28;20038;-67
2022/07/10 07:56:46;;;;;;;0.00;0.00;;;15.80;86.00;;;;;;4975212;28;20049;-67
2022/07/10 07:59:12;;;;;;;5.57;2.50;;;15.80;86.30;;;;;;5004745;28;20034;-68
2022/07/10 08:01:39;;;;;;;0.40;0.40;;;15.70;86.10;;;;;;4981633;28;20134;-67
2022/07/10 08:04:05;;;;;;;0.00;0.00;;;15.80;86.70;;;;;;4982161;28;20049;-69
2022/07/10 08:06:30;;;;;;;0.00;0.00;;;15.70;86.60;;;;;;4980602;28;20035;-66
2022/07/10 08:08:56;;;;;;;0.20;0.20;;;15.80;86.60;;;;;;4979800;28;21187;-67
2022/07/10 08:11:22;;;;;;;0.00;0.00;;;15.90;86.60;;;;;;4982858;28;20098;-68
2022/07/10 08:13:48;;;;;;;0.00;0.00;;;15.90;86.20;;;;;;4982230;28;20055;-68
2022/07/10 08:16:13;;;;;;;0.00;0.00;;;16.00;85.70;;;;;;4990544;28;20364;-68
2022/07/10 08:18:39;;;;;;;0.00;0.00;;;16.10;85.70;;;;;;4987623;28;20046;-69
2022/07/10 08:21:05;;;;;;;0.40;0.40;;;16.20;84.70;;;;;;4991147;28;20130;-68
2022/07/10 08:23:30;;;;;;;0.00;0.00;;;16.40;83.80;;;;;;4994466;28;20066;-69
2022/07/10 08:25:56;;;;;;;0.00;0.00;;;16.40;83.30;;;;;;4988792;28;20046;-69
2022/07/10 08:28:21;;;;;;;0.00;0.00;;;16.50;82.40;;;;;;4992751;28;20046;-68
2022/07/10 08:30:47;;;;;;;0.00;0.00;;;16.30;81.30;;;;;;4990968;28;20046;-68
2022/07/10 08:33:13;;;;;;;0.00;0.00;;;16.40;81.10;;;;;;4982444;28;20052;-68
2022/07/10 08:35:39;;;;;;;0.00;0.00;;;16.20;81.00;;;;;;4992732;28;20052;-68
2022/07/10 08:38:07;;;;;;;0.00;0.00;;;16.20;81.40;;;;;;4987331;28;20133;-68
2022/07/10 08:40:38;;;;;;;0.00;0.00;;;16.20;81.60;;;;;;5003000;28;20046;-69
2022/07/10 08:43:05;;;;;;;0.10;0.10;;;16.20;82.00;;;;;;4992986;28;20134;-68
2022/07/10 08:45:35;;;;;;;0.00;0.00;;;16.20;82.40;;;;;;4977188;28;20385;-68
2022/07/10 08:48:04;;;;;;;0.00;0.00;;;16.30;82.40;;;;;;4998207;28;20138;-68
2022/07/10 08:50:33;;;;;;;0.00;0.00;;;16.40;82.30;;;;;;4993722;28;20043;-68
2022/07/10 08:53:16;;;;;;;0.03;0.03;;;16.40;82.20;;;;;;4992496;28;20039;-68
2022/07/10 08:55:42;;;;;;;0.00;0.00;;;16.50;81.90;;;;;;4993581;28;20381;-68
2022/07/10 08:58:09;;;;;;;0.00;0.00;;;16.60;80.90;;;;;;4990009;28;20049;-68
2022/07/10 09:00:35;;;;;;;0.00;0.00;;;16.60;80.70;;;;;;5000588;28;20399;-68
2022/07/10 09:03:01;;;;;;;0.00;0.00;;;16.70;80.80;;;;;;5010207;28;20041;-68
2022/07/10 09:05:27;;;;;;;0.08;0.08;;;16.70;80.20;;;;;;4990218;28;20042;-70
2022/07/10 09:07:56;;;;;;;0.00;0.00;;;16.60;80.00;;;;;;4995887;28;20034;-69
2022/07/10 09:10:25;;;;;;;0.00;0.00;;;16.60;80.70;;;;;;4992503;28;20042;-69
2022/07/10 09:12:53;;;;;;;0.00;0.00;;;16.50;81.70;;;;;;4995481;28;20049;-69
2022/07/10 09:15:20;;;;;;;0.00;0.00;;;16.40;82.60;;;;;;4996569;28;20038;-69
2022/07/10 09:17:56;;;;;;;0.00;0.00;;;16.40;83.20;;;;;;5002838;28;20081;-68
2022/07/10 09:20:29;;;;;;;0.00;0.00;;;16.40;83.90;;;;;;4993448;28;20034;-68
2022/07/10 09:23:08;;;;;;;0.00;0.00;;;16.50;84.20;;;;;;4994441;28;21009;-68
2022/07/10 09:25:34;;;;;;;0.00;0.00;;;16.60;84.40;;;;;;5000608;28;20046;-69
2022/07/10 09:28:05;;;;;;;0.00;0.00;;;16.60;83.90;;;;;;4985208;28;20046;-68
2022/07/10 09:30:39;;;;;;;0.00;0.00;;;16.80;83.30;;;;;;4991056;28;20045;-68
2022/07/10 09:33:25;;;;;;;0.00;0.00;;;16.80;82.20;;;;;;4994597;28;20027;-68
2022/07/10 09:36:16;;;;;;;0.38;0.38;;;16.90;81.90;;;;;;4993081;28;20050;-68
2022/07/10 09:38:44;;;;;;;0.00;0.00;;;16.90;81.10;;;;;;4988649;28;20058;-68
2022/07/10 09:41:17;;;;;;;0.00;0.00;;;17.10;81.30;;;;;;4990456;28;20038;-67
2022/07/10 09:43:49;;;;;;;0.00;0.00;;;17.10;79.90;;;;;;5010922;28;20503;-68
2022/07/10 09:46:16;;;;;;;0.00;0.00;;;17.10;79.10;;;;;;4994637;28;20046;-67
2022/07/10 09:48:42;;;;;;;0.00;0.00;;;17.10;78.60;;;;;;5013592;28;20061;-69
2022/07/10 09:51:09;;;;;;;0.00;0.00;;;17.00;78.90;;;;;;4995724;28;20038;-68
2022/07/10 09:53:41;;;;;;;0.00;0.00;;;16.90;78.60;;;;;;4994148;28;20059;-67
2022/07/10 09:56:09;;;;;;;0.00;0.00;;;16.90;78.80;;;;;;4995053;28;20085;-68
2022/07/10 09:58:38;;;;;;;0.00;0.00;;;17.00;79.00;;;;;;4993910;28;20567;-68
2022/07/10 10:01:08;;;;;;;0.00;0.00;;;17.00;79.10;;;;;;4975375;28;20049;-68
2022/07/10 10:03:36;;;;;;;0.00;0.00;;;17.10;79.50;;;;;;4973798;28;20065;-68
2022/07/10 10:06:14;;;;;;;0.00;0.00;;;17.20;79.40;;;;;;4972415;28;20047;-69
2022/07/10 10:09:07;;;;;;;0.55;0.38;;;17.20;78.90;;;;;;4997846;28;20085;-68
2022/07/10 10:11:35;;;;;;;0.00;0.00;;;17.20;78.70;;;;;;4992034;28;20149;-69
2022/07/10 10:14:02;;;;;;;0.00;0.00;;;17.20;78.90;;;;;;4991689;28;20057;-69
2022/07/10 10:16:28;;;;;;;0.20;0.20;;;17.10;78.40;;;;;;4990135;28;20097;-68
2022/07/10 10:21:40;;;;;;;0.00;0.00;;;17.00;79.80;;;;;;4991865;28;20062;-73
2022/07/10 10:24:06;;;;;;;0.00;0.00;;;16.80;81.30;;;;;;4999972;28;20057;-73
2022/07/10 10:26:33;;;;;;;0.00;0.00;;;16.70;82.00;;;;;;4992814;28;20042;-73
2022/07/10 10:29:01;;;;;;;0.00;0.00;;;16.60;83.00;;;;;;4990678;28;20058;-73
2022/07/10 10:31:28;;;;;;;0.00;0.00;;;16.40;84.30;;;;;;4992327;28;20046;-73
2022/07/10 10:33:55;;;;;;;0.00;0.00;;;16.40;84.40;;;;;;4992407;28;20058;-73
2022/07/10 10:36:36;;;;;;;0.00;0.00;;;16.20;85.20;;;;;;4992105;28;20046;-73
2022/07/10 10:39:21;;;;;;;0.20;0.20;;;16.20;84.70;;;;;;4991438;28;20090;-73
2022/07/10 10:41:54;;;;;;;0.00;0.00;;;16.10;84.30;;;;;;4974042;28;20046;-73
2022/07/10 10:44:23;;;;;;;0.00;0.00;;;16.10;83.80;;;;;;4990279;28;20127;-73
2022/07/10 10:47:05;;;;;;;0.00;0.00;;;16.10;83.80;;;;;;4991714;28;20042;-72
2022/07/10 10:49:50;;;;;;;0.00;0.00;;;16.10;83.40;;;;;;4990962;28;20534;-73
2022/07/10 10:52:16;;;;;;;0.00;0.00;;;16.20;82.00;;;;;;4990807;28;20054;-72
2022/07/10 10:54:57;;;;;;;0.00;0.00;;;16.30;80.90;;;;;;4988484;28;20058;-72
2022/07/10 10:57:32;;;;;;;0.08;0.08;;;16.50;80.40;;;;;;4991663;28;20042;-72
2022/07/10 11:00:06;;;;;;;0.00;0.00;;;16.60;79.50;;;;;;4996725;28;20125;-72
2022/07/10 11:02:34;;;;;;;0.00;0.00;;;16.80;79.30;;;;;;4989071;28;20633;-72
2022/07/10 11:05:29;;;;;;;0.00;0.00;;;16.90;77.30;;;;;;4989786;28;20457;-71
2022/07/10 11:08:04;;;;;;;0.00;0.00;;;17.10;77.90;;;;;;4955412;28;20063;-72
2022/07/10 11:10:37;;;;;;;1.10;0.70;;;17.20;77.60;;;;;;4982550;28;20046;-72
2022/07/10 11:13:14;;;;;;;0.00;0.00;;;17.20;75.20;;;;;;4988107;28;20129;-69
2022/07/10 11:15:47;;;;;;;0.00;0.00;;;17.20;73.90;;;;;;4989930;28;20166;-69
2022/07/10 11:18:14;;;;;;;0.63;0.63;;;17.20;74.30;;;;;;4990148;28;20487;-69
2022/07/10 11:20:49;;;;;;;0.00;0.00;;;17.20;73.80;;;;;;4981615;28;20042;-69
2022/07/10 11:23:51;;;;;;;0.00;0.00;;;17.20;74.00;;;;;;4984045;28;20764;-69
2022/07/10 11:26:44;;;;;;;0.00;0.00;;;17.30;73.70;;;;;;4977685;28;20043;-68
2022/07/10 11:29:09;;;;;;;0.00;0.00;;;17.30;74.80;;;;;;4963886;28;20065;-68
2022/07/10 11:31:41;;;;;;;0.00;0.00;;;17.40;75.00;;;;;;4976190;28;20043;-68
2022/07/10 11:34:08;;;;;;;0.00;0.00;;;17.50;74.80;;;;;;4985458;28;20054;-68
2022/07/10 11:36:34;;;;;;;0.00;0.00;;;17.60;74.90;;;;;;4954629;28;20050;-68
2022/07/10 11:39:07;;;;;;;0.52;0.52;;;17.60;74.60;;;;;;4977447;28;20034;-68
2022/07/10 11:41:34;;;;;;;0.00;0.00;;;17.60;74.00;;;;;;4993639;28;20042;-68
2022/07/10 11:44:04;;;;;;;0.00;0.00;;;17.60;73.20;;;;;;4998005;28;20045;-67
2022/07/10 11:46:30;;;;;;;0.00;0.00;;;17.60;73.80;;;;;;4989378;28;20093;-68
2022/07/10 11:48:57;;;;;;;0.00;0.00;;;17.60;73.50;;;;;;4989524;28;20042;-67
2022/07/10 11:51:30;;;;;;;0.00;0.00;;;17.60;73.80;;;;;;4987245;28;20406;-67
2022/07/10 11:54:04;;;;;;;0.00;0.00;;;17.60;73.40;;;;;;4987544;28;20050;-67
2022/07/10 11:56:33;;;;;;;0.00;0.00;;;17.60;73.10;;;;;;4987607;28;20039;-67
2022/07/10 11:59:03;;;;;;;0.00;0.00;;;17.70;73.50;;;;;;4989065;28;20074;-68
2022/07/10 12:01:32;;;;;;;0.00;0.00;;;17.80;73.60;;;;;;4979972;28;20042;-67
2022/07/10 12:04:02;;;;;;;0.47;0.47;;;17.80;73.60;;;;;;5006121;28;20056;-67
2022/07/10 12:06:29;;;;;;;0.00;0.00;;;17.90;73.30;;;;;;4995558;28;20049;-67
2022/07/10 12:08:55;;;;;;;0.00;0.00;;;17.80;72.70;;;;;;4971735;28;20333;-67
2022/07/10 12:11:22;;;;;;;0.40;0.40;;;17.80;73.40;;;;;;4979856;28;20053;-67
2022/07/10 12:13:50;;;;;;;0.00;0.00;;;17.90;73.50;;;;;;4980850;28;20129;-68
2022/07/10 12:16:17;;;;;;;0.00;0.00;;;18.00;73.50;;;;;;4980192;28;20047;-67
2022/07/10 12:18:44;;;;;;;0.00;0.00;;;17.90;73.10;;;;;;4971368;28;20101;-67
2022/07/10 12:21:10;;;;;;;0.00;0.00;;;18.10;73.40;;;;;;4988543;28;20428;-68
2022/07/10 12:23:39;;;;;;;0.00;0.00;;;18.10;72.20;;;;;;5006462;28;20133;-67
2022/07/10 12:26:08;;;;;;;0.00;0.00;;;18.20;72.00;;;;;;5008678;28;20049;-67
2022/07/10 12:28:52;;;;;;;0.00;0.00;;;18.20;71.50;;;;;;4998624;28;20053;-68
2022/07/10 12:31:25;;;;;;;0.00;0.00;;;18.30;72.30;;;;;;4989623;28;20104;-68
2022/07/10 12:33:52;;;;;;;0.00;0.00;;;18.50;69.70;;;;;;4987999;28;20082;-69
2022/07/10 12:36:19;;;;;;;0.00;0.00;;;18.50;69.50;;;;;;4982126;28;20404;-67
2022/07/10 12:38:55;;;;;;;0.00;0.00;;;18.50;69.40;;;;;;4989510;28;20050;-68
2022/07/10 12:41:24;;;;;;;0.00;0.00;;;18.60;67.80;;;;;;4991235;28;20042;-68
2022/07/10 12:43:50;;;;;;;0.17;0.17;;;18.60;68.50;;;;;;4996287;28;20494;-68
2022/07/10 12:46:21;;;;;;;0.20;0.20;;;18.80;67.60;;;;;;4997690;28;20050;-68
2022/07/10 12:49:01;;;;;;;0.00;0.00;;;18.80;67.40;;;;;;4994640;28;20412;-67
2022/07/10 12:51:30;;;;;;;0.00;0.00;;;18.80;66.70;;;;;;5000825;28;20048;-67
2022/07/10 12:53:55;;;;;;;0.00;0.00;;;18.90;68.20;;;;;;5001534;28;20045;-68
2022/07/10 12:56:34;;;;;;;0.00;0.00;;;19.00;68.00;;;;;;4999842;28;20038;-68
2022/07/10 12:59:02;;;;;;;0.45;0.45;;;19.00;67.10;;;;;;5000348;28;20703;-67
2022/07/10 13:01:29;;;;;;;0.00;0.00;;;19.00;66.90;;;;;;5000574;28;20043;-66
2022/07/10 13:03:59;;;;;;;0.00;0.00;;;19.10;66.60;;;;;;5001426;28;20053;-66